Terminal Aerodrome Forecast
Issued by NWS Cleveland, OH

Home | Current Version | Previous Version | Graphics & Text | Print | Product List | Glossary Off
Versions: 1 2 3 4 5 6 7 8 9 10 11 12 13 14 15 16 17 18 19 20 21

000
FTUS41 KCLE 201000 AAA
TAFTOL
TAF AMD
KTOL 201003Z 2010/2106 23004KT P6SM BKN150
      TEMPO 2010/2013 4SM BR BKN015
     FM201400 27012KT P6SM BKN035
     FM201900 28010KT P6SM SCT040=

USA.gov is the U.S. government's official web portal to all federal, state and local government web resources and services.